Time;durP1;ratioP1;P1;durP2;ratioP2;P2;SDS_P1;SDS_P2;PMS_P1;PMS_P2;Temp;Humidity;BMP_temperature;BMP_pressure;BME280_temperature;BME280_humidity;BME280_pressure;Samples;Min_cycle;Max_cycle;Signal;HPM_P1;HPM_P2
2021/11/26 00:00:14;;;;;;;51.05;28.20;;;;;;;1.05;87.17;95862.22;5092080;28;20398;-66
2021/11/26 00:02:39;;;;;;;47.95;27.73;;;;;;;0.83;88.88;95866.66;5092042;28;20413;-66
2021/11/26 00:05:05;;;;;;;50.57;28.60;;;;;;;0.82;89.35;95858.13;5091737;28;20481;-66
2021/11/26 00:07:31;;;;;;;51.53;28.97;;;;;;;0.93;89.13;95850.84;5091801;28;20406;-66
2021/11/26 00:09:56;;;;;;;52.13;28.45;;;;;;;0.91;88.76;95845.84;5073755;28;20879;-66
2021/11/26 00:12:23;;;;;;;49.75;28.48;;;;;;;1.08;88.48;95836.81;5100433;28;20420;-66
2021/11/26 00:17:26;;;;;;;49.13;27.48;;;;;;;1.43;86.79;95832.44;5092087;28;20456;-65
2021/11/26 00:19:52;;;;;;;50.33;28.17;;;;;;;1.05;88.30;95823.53;5092073;28;20418;-66
2021/11/26 00:22:17;;;;;;;48.28;27.90;;;;;;;1.07;88.20;95818.94;5091706;28;20385;-66
2021/11/26 00:24:43;;;;;;;49.80;27.73;;;;;;;1.44;86.77;95807.41;5091378;28;20400;-66
2021/11/26 00:27:08;;;;;;;45.80;27.73;;;;;;;1.21;86.85;95802.56;5073946;28;20394;-64
2021/11/26 00:29:34;;;;;;;50.93;28.97;;;;;;;0.95;88.45;95808.38;5091935;28;20483;-66
2021/11/26 00:32:00;;;;;;;49.50;28.38;;;;;;;1.17;87.40;95802.13;5092126;28;20920;-66
2021/11/26 00:34:25;;;;;;;47.65;27.27;;;;;;;0.92;88.21;95801.03;5091419;28;20390;-65
2021/11/26 00:36:50;;;;;;;48.13;28.03;;;;;;;1.11;87.68;95802.13;5091002;28;20421;-65
2021/11/26 00:39:16;;;;;;;50.70;28.17;;;;;;;1.23;87.35;95797.97;5091972;28;20390;-65
2021/11/26 00:41:41;;;;;;;46.85;27.70;;;;;;;1.32;85.94;95788.31;5091574;28;20732;-66
2021/11/26 00:44:07;;;;;;;47.17;26.90;;;;;;;0.74;88.76;95785.25;5090939;28;20382;-66
2021/11/26 00:46:32;;;;;;;46.83;26.80;;;;;;;1.04;88.16;95785.81;5091637;28;20397;-66
2021/11/26 00:48:59;;;;;;;46.03;26.40;;;;;;;0.98;88.50;95781.41;5091399;28;20954;-67
2021/11/26 00:51:24;;;;;;;45.03;26.15;;;;;;;1.11;87.47;95782.28;5091889;28;20382;-66
2021/11/26 00:53:50;;;;;;;42.15;25.48;;;;;;;1.20;87.14;95775.16;5091180;28;20394;-68
2021/11/26 00:56:16;;;;;;;46.47;25.40;;;;;;;1.29;85.64;95776.56;5073494;28;20393;-67
2021/11/26 00:58:41;;;;;;;41.80;25.73;;;;;;;1.06;87.43;95766.56;5073639;28;20390;-67
2021/11/26 01:01:07;;;;;;;45.43;25.63;;;;;;;0.83;87.68;95772.03;5091340;28;20583;-66
2021/11/26 01:03:32;;;;;;;42.10;26.03;;;;;;;1.25;86.21;95767.63;5073033;28;20509;-66
2021/11/26 01:05:58;;;;;;;43.05;25.75;;;;;;;1.12;86.70;95762.41;5091300;28;20409;-67
2021/11/26 01:08:23;;;;;;;44.30;26.53;;;;;;;1.09;86.74;95776.50;5091328;28;20408;-66
2021/11/26 01:10:51;;;;;;;45.03;26.47;;;;;;;1.25;87.21;95772.78;5090967;28;20382;-68
2021/11/26 01:13:16;;;;;;;43.90;24.85;;;;;;;1.35;85.99;95773.22;5082344;28;20435;-67
2021/11/26 01:15:43;;;;;;;44.72;25.77;;;;;;;1.27;86.80;95767.44;5091349;28;20382;-66
2021/11/26 01:18:09;;;;;;;43.77;25.80;;;;;;;1.33;85.73;95772.63;5091390;28;20504;-67
2021/11/26 01:20:36;;;;;;;41.70;25.20;;;;;;;1.32;85.98;95772.81;5091860;28;20402;-66
2021/11/26 01:23:03;;;;;;;43.58;25.75;;;;;;;1.22;86.65;95780.94;5091094;28;20398;-66
2021/11/26 01:25:29;;;;;;;47.60;27.05;;;;;;;1.35;86.70;95775.00;5090901;28;20382;-66
2021/11/26 01:27:55;;;;;;;47.00;26.23;;;;;;;1.11;87.08;95771.97;5090860;28;20410;-65
2021/11/26 01:30:29;;;;;;;46.33;27.30;;;;;;;1.14;87.51;95773.34;5091043;28;20394;-65
2021/11/26 01:32:57;;;;;;;49.05;27.45;;;;;;;1.10;86.81;95769.56;5073805;28;20412;-65
2021/11/26 01:35:23;;;;;;;46.30;27.17;;;;;;;1.17;87.18;95762.66;5095082;28;20409;-65
2021/11/26 01:37:49;;;;;;;49.80;27.93;;;;;;;1.04;88.17;95758.22;5094968;28;20390;-65
2021/11/26 01:40:15;;;;;;;45.60;26.23;;;;;;;1.13;87.36;95751.09;5094265;28;20408;-65
2021/11/26 01:42:41;;;;;;;49.33;28.03;;;;;;;1.18;87.46;95746.97;5094866;28;20393;-65
2021/11/26 01:45:07;;;;;;;47.97;27.13;;;;;;;1.07;87.97;95734.63;5094877;28;20386;-65
2021/11/26 01:47:33;;;;;;;49.72;27.83;;;;;;;1.09;88.33;95737.81;5094567;28;20411;-65
2021/11/26 01:50:00;;;;;;;45.17;26.60;;;;;;;1.04;88.54;95739.38;5094744;28;20392;-67
2021/11/26 01:52:25;;;;;;;45.83;27.02;;;;;;;1.24;88.16;95735.06;5094730;28;20404;-65
2021/11/26 01:54:51;;;;;;;46.45;26.80;;;;;;;1.25;87.78;95737.47;5094518;28;20386;-65
2021/11/26 01:57:18;;;;;;;50.30;27.53;;;;;;;1.21;87.46;95730.31;5076279;28;20392;-65
2021/11/26 01:59:43;;;;;;;47.53;27.48;;;;;;;1.41;85.89;95731.13;5094577;28;20743;-64
2021/11/26 02:02:09;;;;;;;47.00;27.67;;;;;;;1.25;86.89;95734.06;5094409;28;20420;-65
2021/11/26 02:04:35;;;;;;;49.50;27.80;;;;;;;1.12;87.72;95737.41;5094423;28;20378;-65
2021/11/26 02:07:01;;;;;;;48.73;28.13;;;;;;;1.12;87.19;95728.88;5092737;28;20402;-65
2021/11/26 02:09:27;;;;;;;44.23;26.30;;;;;;;0.88;87.90;95732.78;5093815;28;20418;-65
2021/11/26 02:11:52;;;;;;;46.75;27.25;;;;;;;0.96;88.86;95732.59;5093917;28;20738;-65
2021/11/26 02:14:18;;;;;;;45.45;26.65;;;;;;;1.10;87.55;95723.91;5094195;28;20524;-65
2021/11/26 02:16:48;;;;;;;47.57;27.03;;;;;;;1.24;86.81;95714.41;5094384;28;20386;-65
2021/11/26 02:19:14;;;;;;;48.03;27.17;;;;;;;1.20;86.10;95702.91;5093844;28;20936;-65
2021/11/26 02:21:41;;;;;;;47.07;28.03;;;;;;;1.20;87.09;95702.91;5093920;28;20447;-65
2021/11/26 02:24:08;;;;;;;46.13;26.93;;;;;;;0.99;87.76;95706.41;5093768;28;20390;-65
2021/11/26 02:26:35;;;;;;;48.67;27.23;;;;;;;1.08;87.56;95705.25;5094210;28;20409;-65
2021/11/26 02:29:01;;;;;;;48.95;27.48;;;;;;;1.24;86.52;95704.09;5093495;28;20414;-65
2021/11/26 02:31:27;;;;;;;45.93;27.03;;;;;;;1.31;86.19;95707.50;5094000;28;20387;-65
2021/11/26 02:33:52;;;;;;;47.95;26.58;;;;;;;1.27;86.33;95700.34;5075904;28;20389;-65
2021/11/26 02:36:17;;;;;;;45.93;27.00;;;;;;;1.28;86.79;95691.63;5093714;28;20394;-65
2021/11/26 02:38:43;;;;;;;45.87;26.87;;;;;;;1.11;87.03;95691.19;5093570;28;20397;-65
2021/11/26 02:41:08;;;;;;;48.40;27.87;;;;;;;1.19;86.95;95683.25;5093249;28;20440;-65
2021/11/26 02:43:34;;;;;;;50.25;27.63;;;;;;;1.19;87.66;95684.03;5093457;28;20444;-66
2021/11/26 02:45:59;;;;;;;47.27;27.00;;;;;;;1.24;87.17;95684.25;5092185;28;20389;-65
2021/11/26 02:48:24;;;;;;;48.57;27.27;;;;;;;1.25;87.09;95672.13;5093419;28;20888;-65
2021/11/26 02:50:50;;;;;;;46.20;26.67;;;;;;;1.07;88.27;95680.44;5093391;28;20874;-65
2021/11/26 02:53:16;;;;;;;45.20;26.23;;;;;;;1.01;88.33;95675.25;5093293;28;20697;-65
2021/11/26 02:55:42;;;;;;;48.80;27.47;;;;;;;1.31;86.93;95673.94;5093625;28;20472;-65
2021/11/26 02:58:07;;;;;;;46.92;27.15;;;;;;;1.18;86.89;95681.66;5075489;28;20440;-65
2021/11/26 03:00:36;;;;;;;50.42;28.27;;;;;;;1.18;88.83;95676.50;5075439;28;20794;-65
2021/11/26 03:03:01;;;;;;;47.88;27.35;;;;;;;1.07;89.33;95675.28;5093270;28;20401;-65
2021/11/26 03:05:27;;;;;;;47.45;27.45;;;;;;;0.86;89.28;95678.00;5092606;28;20887;-66
2021/11/26 03:07:53;;;;;;;46.17;27.05;;;;;;;1.04;89.33;95667.94;5092906;28;20875;-65
2021/11/26 03:10:20;;;;;;;47.80;26.65;;;;;;;0.96;88.75;95667.31;5096927;28;20703;-65
2021/11/26 03:12:48;;;;;;;49.28;26.88;;;;;;;0.93;89.17;95665.91;5100872;28;20398;-65
2021/11/26 03:15:15;;;;;;;48.00;27.50;;;;;;;1.09;88.24;95668.16;5093055;28;20382;-65
2021/11/26 03:17:40;;;;;;;47.38;27.65;;;;;;;1.05;88.45;95659.22;5074665;28;20751;-65
2021/11/26 03:20:06;;;;;;;48.83;27.33;;;;;;;0.95;89.03;95655.41;5074862;28;20390;-65
2021/11/26 03:22:31;;;;;;;47.90;27.47;;;;;;;0.85;90.39;95660.91;5093312;28;20408;-65
2021/11/26 03:24:57;;;;;;;49.00;27.67;;;;;;;0.90;89.63;95661.13;5092577;28;20382;-65
2021/11/26 03:27:22;;;;;;;47.63;27.23;;;;;;;0.82;90.71;95656.16;5074003;28;20393;-66
2021/11/26 03:29:48;;;;;;;45.00;26.23;;;;;;;0.95;88.95;95653.59;5093188;28;20412;-65
2021/11/26 03:32:13;;;;;;;44.90;26.80;;;;;;;1.04;88.66;95646.50;5092718;28;20394;-65
2021/11/26 03:34:38;;;;;;;45.47;26.83;;;;;;;0.88;89.44;95645.06;5092686;28;20443;-65
2021/11/26 03:37:04;;;;;;;46.90;26.93;;;;;;;0.92;89.49;95638.53;5090862;28;20797;-65
2021/11/26 03:39:29;;;;;;;47.87;27.43;;;;;;;1.09;88.46;95631.22;5091132;28;20389;-65
2021/11/26 03:41:55;;;;;;;48.03;26.37;;;;;;;1.08;88.85;95627.06;5074278;28;20397;-65
2021/11/26 03:44:20;;;;;;;44.70;26.15;;;;;;;0.74;89.62;95622.81;5092113;28;20386;-64
2021/11/26 03:46:46;;;;;;;48.93;27.27;;;;;;;0.79;89.33;95618.66;5092165;28;20875;-65
2021/11/26 03:49:11;;;;;;;49.70;27.77;;;;;;;0.93;88.91;95614.34;5092134;28;20501;-65
2021/11/26 03:51:37;;;;;;;47.97;27.60;;;;;;;1.00;89.15;95612.56;5092947;28;20409;-65
2021/11/26 03:54:02;;;;;;;46.20;26.53;;;;;;;0.96;89.61;95608.78;5092073;28;20866;-65
2021/11/26 03:56:27;;;;;;;43.63;25.67;;;;;;;1.04;89.42;95606.03;5073948;28;20408;-65
2021/11/26 03:58:53;;;;;;;44.30;25.88;;;;;;;1.27;88.88;95603.06;5092183;28;20397;-65
2021/11/26 04:01:18;;;;;;;44.27;25.47;;;;;;;1.21;88.56;95606.44;5073868;28;20400;-65
2021/11/26 04:03:44;;;;;;;41.90;24.93;;;;;;;1.31;87.34;95611.19;5074040;28;20480;-64
2021/11/26 04:06:09;;;;;;;45.22;25.50;;;;;;;1.32;87.83;95605.84;5073818;28;20454;-65
2021/11/26 04:08:34;;;;;;;40.63;25.27;;;;;;;1.28;88.76;95607.25;5092057;28;20394;-65
2021/11/26 04:11:00;;;;;;;40.57;24.57;;;;;;;1.45;86.56;95600.69;5105179;28;20385;-65
2021/11/26 04:13:25;;;;;;;43.17;25.48;;;;;;;1.25;88.35;95597.31;5074815;28;20814;-65
2021/11/26 04:15:51;;;;;;;41.10;24.33;;;;;;;1.25;88.79;95595.53;5092693;28;20398;-65
2021/11/26 04:18:17;;;;;;;42.70;25.13;;;;;;;1.21;88.44;95596.13;5092216;28;20401;-65
2021/11/26 04:20:43;;;;;;;43.10;24.73;;;;;;;1.21;89.32;95590.97;5073896;28;20398;-65
2021/11/26 04:23:09;;;;;;;41.92;24.98;;;;;;;1.17;90.53;95589.78;5092088;28;20913;-65
2021/11/26 04:25:35;;;;;;;43.92;25.92;;;;;;;1.30;89.97;95592.34;5091708;28;20530;-65
2021/11/26 04:28:01;;;;;;;48.40;26.33;;;;;;;1.46;88.49;95585.97;5091766;28;20406;-64
2021/11/26 04:30:29;;;;;;;41.35;25.85;;;;;;;1.49;89.14;95578.66;5092285;28;20401;-64
2021/11/26 04:32:54;;;;;;;43.60;25.77;;;;;;;1.39;90.60;95578.25;5092192;28;20463;-64
2021/11/26 04:35:20;;;;;;;43.87;26.03;;;;;;;1.31;90.74;95568.13;5073657;28;20582;-65
2021/11/26 04:37:46;;;;;;;44.90;25.00;;;;;;;1.41;89.65;95575.47;5076663;28;20402;-67
2021/11/26 04:40:15;;;;;;;47.37;26.80;;;;;;;1.40;89.94;95564.34;5090872;28;20421;-65
2021/11/26 04:42:41;;;;;;;45.40;26.55;;;;;;;1.33;89.47;95568.72;5073452;28;20443;-65
2021/11/26 04:45:10;;;;;;;46.22;26.25;;;;;;;1.56;89.00;95573.50;5091473;28;20398;-65
2021/11/26 04:47:36;;;;;;;45.88;26.50;;;;;;;1.36;89.86;95562.38;5091557;28;20804;-65
2021/11/26 04:50:03;;;;;;;45.08;26.77;;;;;;;1.54;90.31;95554.81;5091560;28;20833;-64
2021/11/26 04:52:29;;;;;;;42.95;25.80;;;;;;;1.60;88.75;95556.59;5091364;28;20393;-65
2021/11/26 04:54:55;;;;;;;47.15;26.55;;;;;;;1.81;87.62;95547.81;5091532;28;20394;-65
2021/11/26 04:57:20;;;;;;;44.88;26.75;;;;;;;1.74;87.79;95549.59;5091469;28;20390;-65
2021/11/26 04:59:46;;;;;;;45.17;26.10;;;;;;;1.57;89.55;95547.44;5091498;28;20839;-65
2021/11/26 05:02:11;;;;;;;40.33;24.87;;;;;;;1.50;88.43;95553.63;5091385;28;20443;-65
2021/11/26 05:04:37;;;;;;;42.00;24.93;;;;;;;1.48;88.80;95542.69;5091927;28;20473;-65
2021/11/26 05:07:02;;;;;;;44.58;25.10;;;;;;;1.42;88.96;95533.97;5073229;28;20785;-65
2021/11/26 05:09:29;;;;;;;44.30;25.77;;;;;;;1.62;89.00;95526.19;5097695;28;20852;-65
2021/11/26 05:11:55;;;;;;;42.20;25.65;;;;;;;1.51;88.49;95519.84;5095379;28;20903;-65
2021/11/26 05:14:23;;;;;;;46.47;26.25;;;;;;;1.48;88.76;95516.88;5095627;28;20393;-65
2021/11/26 05:16:49;;;;;;;41.28;25.13;;;;;;;1.54;88.36;95508.34;5095183;28;20909;-65
2021/11/26 05:19:15;;;;;;;44.80;26.15;;;;;;;1.64;87.78;95511.28;5095650;28;20481;-65
2021/11/26 05:21:40;;;;;;;47.80;27.10;;;;;;;1.88;86.04;95510.63;5095168;28;20390;-65
2021/11/26 05:24:06;;;;;;;47.38;27.08;;;;;;;1.68;87.22;95510.69;5095454;28;20835;-65
2021/11/26 05:26:31;;;;;;;43.53;25.27;;;;;;;1.38;88.34;95503.59;5095324;28;20397;-66
2021/11/26 05:28:56;;;;;;;45.30;25.53;;;;;;;1.42;88.86;95497.03;5095119;28;20747;-65
2021/11/26 05:31:22;;;;;;;46.77;26.20;;;;;;;1.53;87.75;95491.25;5094693;28;20389;-64
2021/11/26 05:33:48;;;;;;;44.43;25.87;;;;;;;1.49;87.19;95498.63;5094463;28;20392;-65
2021/11/26 05:36:14;;;;;;;42.42;25.80;;;;;;;1.50;88.03;95502.00;5094778;28;20402;-66
2021/11/26 05:38:39;;;;;;;42.67;25.48;;;;;;;1.52;87.05;95508.53;5095234;28;20396;-66
2021/11/26 05:41:05;;;;;;;45.78;26.08;;;;;;;1.64;87.62;95511.28;5094194;28;20382;-65
2021/11/26 05:43:31;;;;;;;46.83;26.03;;;;;;;1.25;88.67;95514.72;5076692;28;20390;-65
2021/11/26 05:45:56;;;;;;;48.63;27.07;;;;;;;1.28;89.63;95516.13;5095001;28;20386;-65
2021/11/26 05:48:22;;;;;;;46.73;26.90;;;;;;;1.51;88.88;95512.09;5076586;28;20832;-65
2021/11/26 05:50:47;;;;;;;48.33;26.67;;;;;;;1.47;88.61;95505.75;5094675;28;20404;-65
2021/11/26 05:53:13;;;;;;;45.97;26.33;;;;;;;1.55;88.18;95507.34;5094472;28;20413;-66
2021/11/26 05:55:39;;;;;;;48.38;27.25;;;;;;;1.33;88.80;95498.25;5094474;28;20476;-66
2021/11/26 05:58:04;;;;;;;48.50;27.45;;;;;;;1.12;90.13;95504.41;5094476;28;20425;-65
2021/11/26 06:00:31;;;;;;;51.27;28.03;;;;;;;1.67;90.64;95503.91;5094316;28;20425;-65
2021/11/26 06:02:57;;;;;;;50.63;27.77;;;;;;;1.52;90.61;95505.16;5093975;28;20433;-65
2021/11/26 06:05:23;;;;;;;52.27;27.87;;;;;;;1.69;89.95;95508.91;5093712;28;20432;-66
2021/11/26 06:07:49;;;;;;;49.67;26.63;;;;;;;1.65;89.38;95505.13;5093703;28;20493;-65
2021/11/26 06:10:15;;;;;;;46.47;26.00;;;;;;;1.25;90.07;95497.47;5105160;28;20877;-65
2021/11/26 06:12:42;;;;;;;51.07;27.57;;;;;;;1.12;91.16;95496.66;5076382;28;20404;-66
2021/11/26 06:15:09;;;;;;;48.00;26.55;;;;;;;1.20;91.44;95496.47;5094338;28;20454;-65
2021/11/26 06:17:35;;;;;;;49.35;27.00;;;;;;;1.52;90.76;95500.00;5075934;28;20394;-65
2021/11/26 06:20:00;;;;;;;45.60;25.73;;;;;;;1.42;91.10;95499.63;5075343;28;20397;-65
2021/11/26 06:22:26;;;;;;;49.30;26.92;;;;;;;1.40;90.97;95494.66;5094174;28;20394;-65
2021/11/26 06:24:51;;;;;;;45.87;26.83;;;;;;;1.65;90.12;95492.22;5094140;28;20390;-65
2021/11/26 06:27:16;;;;;;;47.13;26.63;;;;;;;1.60;90.00;95492.84;5094486;28;20386;-65
2021/11/26 06:29:42;;;;;;;48.30;26.60;;;;;;;1.44;91.30;95492.47;5093910;28;20417;-65
2021/11/26 06:32:07;;;;;;;47.23;26.83;;;;;;;1.52;91.62;95493.03;5093560;28;20535;-65
2021/11/26 06:34:33;;;;;;;48.17;26.27;;;;;;;1.50;91.59;95494.25;5093643;28;20514;-65
2021/11/26 06:36:59;;;;;;;45.20;26.15;;;;;;;1.50;91.06;95491.69;5093622;28;20390;-66
2021/11/26 06:39:24;;;;;;;46.07;26.13;;;;;;;1.75;89.65;95486.63;5093752;28;20398;-65
2021/11/26 06:41:50;;;;;;;44.93;25.80;;;;;;;1.70;89.97;95482.06;5093386;28;20382;-66
2021/11/26 06:44:16;;;;;;;45.00;25.38;;;;;;;1.84;89.11;95488.00;5093781;28;20404;-66
2021/11/26 06:46:41;;;;;;;44.50;25.43;;;;;;;1.88;89.33;95481.44;5093390;28;20382;-66
2021/11/26 06:49:06;;;;;;;43.50;24.57;;;;;;;1.89;88.75;95478.66;5093433;28;20405;-65
2021/11/26 06:51:32;;;;;;;40.42;23.30;;;;;;;1.86;88.65;95476.47;5093722;28;20814;-65
2021/11/26 06:53:57;;;;;;;41.70;24.47;;;;;;;1.93;88.64;95479.03;5093578;28;20431;-65
2021/11/26 06:56:23;;;;;;;40.07;23.93;;;;;;;1.88;88.76;95478.84;5093266;28;20566;-65
2021/11/26 06:58:49;;;;;;;40.90;24.10;;;;;;;1.85;88.63;95484.41;5093329;28;20394;-65
2021/11/26 07:01:14;;;;;;;41.97;24.05;;;;;;;1.94;89.11;95471.06;5093023;28;20386;-66
2021/11/26 07:03:40;;;;;;;42.20;24.43;;;;;;;2.54;91.60;95471.56;5093263;28;20410;-65
2021/11/26 07:06:06;;;;;;;40.15;23.42;;;;;;;2.18;88.96;95468.75;5093199;28;20755;-66
2021/11/26 07:08:31;;;;;;;41.83;24.35;;;;;;;2.17;88.54;95462.81;5097328;28;20404;-66
2021/11/26 07:10:57;;;;;;;38.25;23.23;;;;;;;1.97;88.61;95459.53;5104769;28;20401;-66
2021/11/26 07:13:22;;;;;;;40.43;23.60;;;;;;;2.18;87.30;95456.63;5092787;28;20800;-66
2021/11/26 07:15:48;;;;;;;41.35;23.92;;;;;;;2.13;87.65;95453.09;5093427;28;20383;-66
2021/11/26 07:18:13;;;;;;;41.47;23.63;;;;;;;1.94;89.00;95455.56;5092648;28;20386;-67
2021/11/26 07:20:40;;;;;;;40.73;23.83;;;;;;;2.04;87.41;95455.13;5092530;28;20390;-66
2021/11/26 07:23:06;;;;;;;36.53;22.42;;;;;;;1.87;89.12;95454.81;5092539;28;20398;-68
2021/11/26 07:25:31;;;;;;;36.13;21.65;;;;;;;1.84;89.35;95452.63;5092870;28;20387;-68
2021/11/26 07:27:56;;;;;;;35.40;20.83;;;;;;;1.68;89.45;95442.75;5092576;28;20793;-68
2021/11/26 07:30:22;;;;;;;39.57;23.37;;;;;;;2.03;88.53;95438.81;5092156;28;20396;-68
2021/11/26 07:32:47;;;;;;;39.80;22.93;;;;;;;2.20;87.19;95431.38;5092471;28;20432;-68
2021/11/26 07:35:13;;;;;;;37.92;22.02;;;;;;;2.13;87.24;95428.03;5092679;28;20875;-66
2021/11/26 07:37:40;;;;;;;37.20;22.48;;;;;;;1.78;89.41;95426.84;5092523;28;20394;-64
2021/11/26 07:40:07;;;;;;;39.88;23.17;;;;;;;1.66;90.66;95418.94;5091966;28;20496;-64
2021/11/26 07:42:34;;;;;;;40.05;23.00;;;;;;;2.14;89.10;95416.72;5092210;28;20946;-67
2021/11/26 07:45:00;;;;;;;44.95;25.45;;;;;;;2.22;87.24;95415.69;5074581;28;20390;-67
2021/11/26 07:47:26;;;;;;;42.58;24.98;;;;;;;2.18;88.34;95419.66;5092721;28;20430;-69
2021/11/26 07:49:52;;;;;;;45.30;25.47;;;;;;;2.13;88.85;95404.78;5092710;28;20418;-69
2021/11/26 07:52:19;;;;;;;44.80;24.75;;;;;;;2.01;89.12;95406.44;5092376;28;20386;-68
2021/11/26 07:54:44;;;;;;;43.22;25.15;;;;;;;1.96;89.21;95408.84;5092382;28;20390;-68
2021/11/26 07:57:11;;;;;;;43.95;24.88;;;;;;;1.95;89.03;95405.47;5092159;28;20402;-65
2021/11/26 07:59:36;;;;;;;43.47;24.65;;;;;;;2.16;88.68;95406.97;5074139;28;20952;-66
2021/11/26 08:02:02;;;;;;;44.77;25.20;;;;;;;2.24;88.15;95401.53;5092248;28;20480;-66
2021/11/26 08:04:27;;;;;;;43.30;25.17;;;;;;;2.16;88.63;95403.59;5092273;28;20454;-67
2021/11/26 08:06:52;;;;;;;44.03;24.77;;;;;;;2.14;89.03;95405.56;5092347;28;20413;-67
2021/11/26 08:09:18;;;;;;;43.37;24.77;;;;;;;2.21;88.83;95401.16;5091687;28;20417;-67
2021/11/26 08:11:45;;;;;;;45.03;26.02;;;;;;;2.05;90.45;95392.13;5091851;28;20401;-67
2021/11/26 08:14:11;;;;;;;46.72;26.17;;;;;;;2.20;89.40;95399.56;5092212;28;20401;-66
2021/11/26 08:16:37;;;;;;;42.70;25.08;;;;;;;2.26;89.89;95394.38;5092086;28;20862;-66
2021/11/26 08:19:04;;;;;;;44.60;25.70;;;;;;;2.46;88.60;95395.00;5092293;28;20401;-67
2021/11/26 08:21:30;;;;;;;43.95;25.15;;;;;;;2.37;88.59;95385.16;5091639;28;20390;-67
2021/11/26 08:23:56;;;;;;;45.53;25.15;;;;;;;2.56;88.32;95388.59;5091515;28;20386;-68
2021/11/26 08:26:21;;;;;;;45.00;25.33;;;;;;;2.25;88.33;95384.22;5091837;28;20386;-67
2021/11/26 08:28:47;;;;;;;47.00;26.53;;;;;;;2.41;88.68;95384.50;5092098;28;20401;-66
2021/11/26 08:31:13;;;;;;;43.50;25.30;;;;;;;2.23;88.43;95386.25;5092038;28;20424;-67
2021/11/26 08:33:38;;;;;;;44.92;25.45;;;;;;;2.36;87.80;95371.44;5091127;28;20460;-67
2021/11/26 08:36:04;;;;;;;45.40;25.73;;;;;;;2.18;89.39;95373.13;5092309;28;20397;-67
2021/11/26 08:38:29;;;;;;;45.40;26.37;;;;;;;2.58;87.27;95368.47;5091707;28;20494;-67
2021/11/26 08:40:55;;;;;;;43.40;25.58;;;;;;;2.37;88.11;95369.63;5090631;28;20386;-68
2021/11/26 08:43:20;;;;;;;42.77;25.30;;;;;;;2.51;87.79;95355.59;5090619;28;20389;-67
2021/11/26 08:45:46;;;;;;;41.17;24.77;;;;;;;2.41;88.36;95363.03;5089635;28;20394;-67
2021/11/26 08:48:12;;;;;;;41.80;24.23;;;;;;;2.59;86.75;95354.56;5091459;28;20800;-67
2021/11/26 08:50:39;;;;;;;44.47;24.67;;;;;;;2.40;88.30;95356.28;5091224;28;20481;-67
2021/11/26 08:53:06;;;;;;;43.00;24.73;;;;;;;2.49;89.00;95348.06;5090912;28;20417;-67
2021/11/26 08:55:33;;;;;;;45.33;25.10;;;;;;;2.65;88.25;95345.94;5091382;28;20919;-66
2021/11/26 08:58:00;;;;;;;42.67;24.98;;;;;;;2.79;86.66;95331.88;5091306;28;20436;-67
2021/11/26 09:00:34;;;;;;;42.13;24.48;;;;;;;2.82;87.12;95334.84;5091342;28;20385;-66
2021/11/26 09:03:01;;;;;;;44.67;24.90;;;;;;;2.86;86.64;95332.59;5091185;28;20445;-67
2021/11/26 09:05:27;;;;;;;45.72;24.52;;;;;;;2.76;87.00;95333.09;5090327;28;20453;-67
2021/11/26 09:08:03;;;;;;;41.13;24.55;;;;;;;2.89;86.72;95335.56;5091214;28;20445;-66
2021/11/26 09:10:37;;;;;;;40.55;23.63;;;;;;;2.82;87.98;95331.47;5091074;28;20386;-66
2021/11/26 09:13:04;;;;;;;39.28;23.45;;;;;;;2.70;87.83;95333.97;5091758;28;20446;-66
2021/11/26 09:15:30;;;;;;;39.88;23.60;;;;;;;2.90;88.09;95338.94;5090846;28;20765;-68
2021/11/26 09:17:56;;;;;;;40.92;24.17;;;;;;;2.91;88.39;95337.94;5090499;28;20428;-65
2021/11/26 09:20:21;;;;;;;43.05;24.75;;;;;;;2.82;88.47;95337.44;5091192;28;20397;-66
2021/11/26 09:22:47;;;;;;;44.53;25.10;;;;;;;3.04;87.41;95331.84;5091112;28;20801;-65
2021/11/26 09:25:14;;;;;;;42.38;24.10;;;;;;;2.91;88.95;95335.34;5091010;28;20789;-65
2021/11/26 09:27:40;;;;;;;44.33;24.77;;;;;;;2.96;88.26;95319.97;5090939;28;20405;-65
2021/11/26 09:30:08;;;;;;;39.15;23.42;;;;;;;3.17;87.33;95319.56;5091135;28;20465;-65
2021/11/26 09:32:34;;;;;;;42.13;24.38;;;;;;;3.16;86.50;95322.34;5091026;28;20455;-65
2021/11/26 09:34:59;;;;;;;39.60;24.15;;;;;;;3.04;86.70;95322.28;5091004;28;20410;-66
2021/11/26 09:37:25;;;;;;;39.03;23.65;;;;;;;3.21;87.12;95318.09;5090100;28;20522;-66
2021/11/26 09:39:50;;;;;;;43.13;24.70;;;;;;;3.17;86.96;95311.00;5090390;28;20394;-67
2021/11/26 09:42:16;;;;;;;41.07;23.37;;;;;;;3.39;86.19;95306.94;5089480;28;20390;-66
2021/11/26 09:44:44;;;;;;;45.67;25.27;;;;;;;3.44;85.21;95304.50;5085483;28;20429;-65
2021/11/26 09:47:09;;;;;;;43.67;24.92;;;;;;;2.95;87.01;95307.25;5091188;28;20742;-66
2021/11/26 09:49:35;;;;;;;39.50;23.50;;;;;;;3.04;85.72;95295.59;5091079;28;20493;-65
2021/11/26 09:52:00;;;;;;;41.75;24.25;;;;;;;2.95;87.68;95289.16;5090806;28;20392;-66
2021/11/26 09:54:26;;;;;;;40.80;24.83;;;;;;;3.30;85.89;95288.31;5091450;28;20455;-66
2021/11/26 09:56:52;;;;;;;41.37;24.07;;;;;;;3.28;86.24;95287.75;5093923;28;20397;-65
2021/11/26 09:59:19;;;;;;;40.60;24.03;;;;;;;3.07;86.28;95277.84;5076648;28;20397;-65
2021/11/26 10:01:45;;;;;;;44.45;24.42;;;;;;;3.31;85.35;95274.38;5076563;28;20386;-66
2021/11/26 10:04:19;;;;;;;42.80;24.63;;;;;;;3.15;86.65;95269.78;5094129;28;20501;-66
2021/11/26 10:06:45;;;;;;;42.97;24.90;;;;;;;3.41;85.35;95267.88;5093242;28;20774;-65
2021/11/26 10:09:15;;;;;;;43.05;24.23;;;;;;;3.26;85.37;95263.09;5093892;28;20890;-66
2021/11/26 10:11:53;;;;;;;40.28;23.50;;;;;;;3.23;85.97;95256.53;5094582;28;20386;-65
2021/11/26 10:14:28;;;;;;;44.50;24.90;;;;;;;3.31;86.45;95252.88;5093793;28;20739;-66
2021/11/26 10:17:03;;;;;;;42.47;24.33;;;;;;;3.38;85.45;95248.41;5094386;28;20424;-66
2021/11/26 10:19:31;;;;;;;39.15;23.55;;;;;;;3.24;85.90;95241.78;5094133;28;20389;-66
2021/11/26 10:21:57;;;;;;;45.00;25.00;;;;;;;3.13;86.73;95245.91;5076218;28;20453;-66
2021/11/26 10:24:22;;;;;;;41.43;23.97;;;;;;;3.51;84.90;95237.84;5093097;28;20439;-66
2021/11/26 10:26:51;;;;;;;43.05;25.13;;;;;;;3.45;84.79;95237.97;5093376;28;20459;-65
2021/11/26 10:29:28;;;;;;;42.05;23.73;;;;;;;3.59;83.85;95232.38;5093820;28;20454;-65
2021/11/26 10:32:06;;;;;;;41.58;24.45;;;;;;;3.75;84.11;95234.31;5093992;28;20390;-66
2021/11/26 10:34:32;;;;;;;44.03;24.17;;;;;;;3.87;83.12;95223.97;5078579;28;20394;-66
2021/11/26 10:36:58;;;;;;;41.80;25.02;;;;;;;4.01;83.34;95227.16;5093804;28;20386;-66
2021/11/26 10:39:24;;;;;;;45.37;25.43;;;;;;;3.87;83.98;95226.56;5093771;28;20866;-66
2021/11/26 10:41:54;;;;;;;39.55;23.73;;;;;;;3.95;82.60;95215.09;5093311;28;20863;-66
2021/11/26 10:44:29;;;;;;;42.67;24.13;;;;;;;3.67;83.25;95213.13;5090035;28;20382;-68
2021/11/26 10:47:54;;;;;;;40.00;23.58;;;;;;;3.69;83.25;95211.88;5092663;28;21179;-66
2021/11/26 10:57:42;;;;;;;36.43;22.07;;;;;;;3.52;84.99;95210.94;5096277;28;20437;-66
2021/11/26 11:00:08;;;;;;;36.70;21.33;;;;;;;3.39;85.75;95202.59;5091812;28;20913;-66
2021/11/26 11:02:39;;;;;;;35.50;21.20;;;;;;;3.71;84.52;95196.13;5074372;28;20401;-67
2021/11/26 11:05:29;;;;;;;39.25;22.00;;;;;;;3.78;83.18;95185.66;5085419;28;20386;-67
2021/11/26 11:07:54;;;;;;;36.80;22.53;;;;;;;3.85;83.49;95181.94;5087276;28;21037;-66
2021/11/26 11:10:32;;;;;;;36.90;21.40;;;;;;;3.93;83.41;95173.06;5074438;28;20386;-66
2021/11/26 11:13:07;;;;;;;36.53;20.17;;;;;;;3.80;83.92;95168.06;5092791;28;20386;-66
2021/11/26 11:15:33;;;;;;;30.98;19.15;;;;;;;3.70;83.83;95163.44;5074028;28;20483;-66
2021/11/26 11:17:58;;;;;;;35.00;20.27;;;;;;;3.66;84.21;95160.53;5092433;28;20428;-67
2021/11/26 11:20:25;;;;;;;31.63;19.47;;;;;;;3.40;84.94;95149.78;5092296;28;20382;-67
2021/11/26 11:22:51;;;;;;;33.03;19.07;;;;;;;3.45;84.25;95147.31;5074372;28;20869;-67
2021/11/26 11:25:24;;;;;;;33.10;19.60;;;;;;;3.60;84.16;95145.88;5092537;28;20531;-66
2021/11/26 11:27:52;;;;;;;34.05;19.80;;;;;;;3.75;84.08;95148.81;5092681;28;20414;-66
2021/11/26 11:30:17;;;;;;;34.08;20.20;;;;;;;3.59;84.09;95140.91;5090301;28;20751;-66